createdAt,value
2023-03-23T17:28:06.754Z,18.56
2023-03-23T17:28:18.332Z,18.53
2023-03-23T17:28:26.686Z,18.53
2023-03-23T17:28:37.030Z,18.53
2023-03-23T17:28:47.019Z,18.49
2023-03-23T17:28:57.107Z,18.44
2023-03-23T17:29:07.263Z,18.42
2023-03-23T17:29:17.659Z,18.36
2023-03-23T17:29:27.576Z,18.28
2023-03-23T17:29:37.715Z,18.20
2023-03-23T17:29:48.218Z,18.11
2023-03-23T17:29:58.032Z,18.02
2023-03-23T17:30:08.156Z,17.95
2023-03-23T17:30:17.973Z,17.87
2023-03-23T17:30:28.294Z,17.80
2023-03-23T17:30:38.362Z,17.76
2023-03-23T17:30:48.407Z,17.71
2023-03-23T17:30:58.501Z,17.70
2023-03-23T17:31:08.537Z,17.63
2023-03-23T17:31:18.632Z,17.60
2023-03-23T17:31:29.010Z,17.54
2023-03-23T17:31:39.074Z,17.49
2023-03-23T17:31:49.134Z,17.42
2023-03-23T17:31:59.349Z,17.38
2023-03-23T17:32:09.452Z,17.32
2023-03-23T17:32:19.487Z,17.25
2023-03-23T17:32:29.561Z,17.20
2023-03-23T17:32:39.849Z,17.18
2023-03-23T17:32:49.900Z,17.12
2023-03-23T17:33:00.060Z,17.06
2023-03-23T17:33:10.372Z,17.02
2023-03-23T17:33:20.909Z,16.95
2023-03-23T17:33:30.521Z,16.90
2023-03-23T17:33:40.612Z,16.84
2023-03-23T17:33:51.291Z,16.80
2023-03-23T17:34:00.794Z,16.75
2023-03-23T17:34:10.867Z,16.72
2023-03-23T17:34:20.969Z,16.69
2023-03-23T17:34:31.082Z,16.66
2023-03-23T17:34:41.415Z,16.62
2023-03-23T17:34:51.487Z,16.57
2023-03-23T17:35:01.582Z,16.52
2023-03-23T17:35:11.583Z,16.50
2023-03-23T17:35:21.874Z,16.45
2023-03-23T17:35:31.765Z,16.42
2023-03-23T17:35:42.000Z,16.40
2023-03-23T17:35:52.510Z,16.37
2023-03-23T17:36:02.308Z,16.32
2023-03-23T17:36:12.343Z,16.29
2023-03-23T17:36:22.522Z,16.26
2023-03-23T17:36:32.606Z,16.23
2023-03-23T17:36:42.821Z,16.18
2023-03-23T17:36:52.833Z,16.17
2023-03-23T17:37:02.765Z,16.17
2023-03-23T17:37:13.004Z,16.17
2023-03-23T17:37:23.155Z,16.16
2023-03-23T17:37:33.209Z,16.16
2023-03-23T17:37:43.415Z,16.14
2023-03-23T17:37:53.647Z,16.14
2023-03-23T17:38:03.724Z,16.13
2023-03-23T17:38:13.883Z,16.11
2023-03-23T17:38:24.262Z,16.11
2023-03-23T17:38:34.144Z,16.11
2023-03-23T17:38:44.187Z,16.13
2023-03-23T17:38:54.295Z,16.11
2023-03-23T17:39:04.548Z,16.13
2023-03-23T17:39:14.563Z,16.14
2023-03-23T17:39:25.685Z,16.16
2023-03-23T17:39:43.125Z,16.16
2023-03-23T17:39:49.282Z,16.13
2023-03-23T17:39:56.187Z,16.17
2023-03-23T17:40:06.233Z,16.22
2023-03-23T17:40:16.405Z,16.23
2023-03-23T17:40:26.528Z,16.25
2023-03-23T17:40:36.648Z,16.26
2023-03-23T17:40:56.883Z,16.32
2023-03-23T17:41:07.165Z,16.33
2023-03-23T17:41:17.038Z,16.36
2023-03-23T17:41:27.180Z,16.37
2023-03-23T17:41:37.321Z,16.40
2023-03-23T17:41:47.478Z,16.41
2023-03-23T17:41:57.606Z,16.44
2023-03-23T17:42:07.745Z,16.45
2023-03-23T17:42:17.758Z,16.45
2023-03-23T17:42:27.929Z,16.47
2023-03-23T17:42:38.060Z,16.48
2023-03-23T17:42:48.109Z,16.48
2023-03-23T17:42:58.168Z,16.50
2023-03-23T17:43:08.258Z,16.50
2023-03-23T17:43:18.494Z,16.50
2023-03-23T17:43:28.467Z,16.50
2023-03-23T17:43:39.259Z,16.51
2023-03-23T17:43:49.434Z,16.51
2023-03-23T17:43:59.052Z,16.51
2023-03-23T17:44:09.026Z,16.51
2023-03-23T17:44:19.239Z,16.51
2023-03-23T17:44:29.608Z,16.51
2023-03-23T17:44:39.355Z,16.51
2023-03-23T17:44:49.549Z,16.50
2023-03-23T17:44:59.654Z,16.48
2023-03-23T17:45:09.839Z,16.48
2023-03-23T17:45:20.065Z,16.47
2023-03-23T17:45:30.258Z,16.47
2023-03-23T17:45:40.313Z,16.47
2023-03-23T17:46:41.027Z,16.41
2023-03-23T17:46:52.180Z,16.42
2023-03-23T17:47:02.949Z,16.42
2023-03-23T17:47:12.416Z,16.42
2023-03-23T17:47:22.527Z,16.41
2023-03-23T17:47:32.953Z,16.42
2023-03-23T17:47:42.756Z,16.42
2023-03-23T17:47:52.779Z,16.44
2023-03-23T17:48:14.306Z,16.45
2023-03-23T17:48:23.260Z,16.45
2023-03-23T17:48:33.486Z,16.44
2023-03-23T17:48:43.509Z,16.44
2023-03-23T17:48:53.691Z,16.41
2023-03-23T17:49:03.991Z,16.37
2023-03-23T17:49:24.054Z,16.34
2023-03-23T17:49:34.181Z,16.33
2023-03-23T17:49:44.313Z,16.32
2023-03-23T17:49:54.330Z,16.32
2023-03-23T17:50:12.239Z,16.29
2023-03-23T17:50:18.401Z,16.27
2023-03-23T17:50:25.151Z,16.26
2023-03-23T17:50:35.404Z,16.27
2023-03-23T17:50:45.357Z,16.27
2023-03-23T17:50:55.401Z,16.27
2023-03-23T17:51:05.813Z,16.27
2023-03-23T17:51:25.894Z,16.27
2023-03-23T17:51:36.031Z,16.29
2023-03-23T17:51:46.083Z,16.30
2023-03-23T17:51:56.283Z,16.30
2023-03-23T17:52:06.369Z,16.32
2023-03-23T17:52:16.521Z,16.32
2023-03-23T17:52:27.454Z,16.33
2023-03-23T17:52:36.739Z,16.33
2023-03-23T17:52:46.977Z,16.36
2023-03-23T17:52:56.981Z,16.37
2023-03-23T17:53:07.113Z,16.37
2023-03-23T17:53:17.282Z,16.37
2023-03-23T17:53:36.488Z,16.42
2023-03-23T17:53:47.684Z,16.42
2023-03-23T17:53:57.624Z,16.41
2023-03-23T17:54:08.760Z,16.40
2023-03-23T17:54:17.790Z,16.40
2023-03-23T17:54:27.899Z,16.40
2023-03-23T17:54:38.067Z,16.36
2023-03-23T17:54:48.090Z,16.36
2023-03-23T17:54:58.440Z,16.34
2023-03-23T17:55:18.637Z,16.36
2023-03-23T17:55:29.958Z,16.36
2023-03-23T17:55:39.209Z,16.36
2023-03-23T17:55:52.236Z,16.37
2023-03-23T17:55:59.191Z,16.37
2023-03-23T17:56:09.449Z,16.41
2023-03-23T17:56:20.109Z,16.42
2023-03-23T17:56:39.612Z,16.45
2023-03-23T17:56:49.613Z,16.45
2023-03-23T17:56:59.698Z,16.47
2023-03-23T17:57:09.918Z,16.48
2023-03-23T17:57:20.086Z,16.51
2023-03-23T17:57:30.155Z,16.54
2023-03-23T17:57:41.154Z,16.57
2023-03-23T17:57:50.339Z,16.60
2023-03-23T17:58:00.588Z,16.62
2023-03-23T17:58:11.592Z,16.63
2023-03-23T17:58:20.801Z,16.60
2023-03-23T17:58:30.750Z,16.60
2023-03-23T17:58:51.674Z,16.55
2023-03-23T17:59:01.294Z,16.52
2023-03-23T17:59:11.328Z,16.50
2023-03-23T17:59:21.388Z,16.47
2023-03-23T17:59:31.599Z,16.45
2023-03-23T17:59:41.544Z,16.42
2023-03-23T17:59:51.989Z,16.41
2023-03-23T18:00:01.871Z,16.41
2023-03-23T18:00:12.079Z,16.42
2023-03-23T18:00:22.149Z,16.40
2023-03-23T18:00:32.206Z,16.41
2023-03-23T18:00:42.483Z,16.40
2023-03-23T18:00:52.522Z,16.40
2023-03-23T18:01:02.671Z,16.40
2023-03-23T18:01:12.748Z,16.40
2023-03-23T18:01:22.861Z,16.40
2023-03-23T18:01:32.954Z,16.40
2023-03-23T18:01:42.947Z,16.41
2023-03-23T18:01:53.326Z,16.41
2023-03-23T18:02:03.432Z,16.42
2023-03-23T18:02:13.517Z,16.41
2023-03-23T18:02:23.558Z,16.45
2023-03-23T18:02:33.719Z,16.44
2023-03-23T18:02:43.888Z,16.42
2023-03-23T18:02:53.765Z,16.44
2023-03-23T18:03:03.969Z,16.44
2023-03-23T18:03:14.168Z,16.45
2023-03-23T18:03:24.358Z,16.44
2023-03-23T18:03:34.602Z,16.42
2023-03-23T18:03:46.128Z,16.42
2023-03-23T18:03:54.865Z,16.42
2023-03-23T18:04:04.820Z,16.44
2023-03-23T18:04:15.047Z,16.44
2023-03-23T18:04:25.223Z,16.45
2023-03-23T18:04:35.249Z,16.47
2023-03-23T18:04:46.215Z,16.47
2023-03-23T18:04:55.515Z,16.47
2023-03-23T18:05:05.700Z,16.48
2023-03-23T18:05:15.886Z,16.48
2023-03-23T18:05:25.956Z,16.50
2023-03-23T18:05:36.110Z,16.50
2023-03-23T18:05:56.297Z,16.50
2023-03-23T18:06:06.429Z,16.52
2023-03-23T18:06:16.458Z,16.52
2023-03-23T18:06:26.636Z,16.52
2023-03-23T18:06:40.978Z,16.52
2023-03-23T18:06:47.181Z,16.48
2023-03-23T18:06:57.437Z,16.50
2023-03-23T18:07:07.457Z,16.48
2023-03-23T18:07:18.426Z,16.47
2023-03-23T18:07:27.769Z,16.45
2023-03-23T18:07:48.011Z,16.44
2023-03-23T18:07:58.181Z,16.45
2023-03-23T18:08:09.115Z,16.45
2023-03-23T18:08:18.211Z,16.44
2023-03-23T18:08:28.434Z,16.44
2023-03-23T18:08:38.721Z,16.41
2023-03-23T18:08:48.531Z,16.42
2023-03-23T18:08:58.667Z,16.42
2023-03-23T18:09:19.123Z,16.41
2023-03-23T18:09:29.710Z,16.41
2023-03-23T18:09:39.180Z,16.40
2023-03-23T18:09:49.364Z,16.36
2023-03-23T18:09:59.587Z,16.36
2023-03-23T18:10:09.579Z,16.32
2023-03-23T18:10:20.877Z,16.30
2023-03-23T18:10:29.783Z,16.29
2023-03-23T18:10:40.084Z,16.29
2023-03-23T18:10:50.126Z,16.26
2023-03-23T18:11:00.304Z,16.25
2023-03-23T18:11:10.254Z,16.25
2023-03-23T18:11:30.758Z,16.17
2023-03-23T18:11:40.731Z,16.14
2023-03-23T18:11:51.766Z,16.13
2023-03-23T18:12:00.765Z,16.14
2023-03-23T18:12:10.991Z,16.13
2023-03-23T18:12:21.242Z,16.10
2023-03-23T18:12:31.321Z,16.10
2023-03-23T18:12:41.342Z,16.08
2023-03-23T18:13:01.639Z,16.07
2023-03-23T18:13:11.818Z,16.06
2023-03-23T18:13:21.827Z,16.03
2023-03-23T18:13:32.164Z,16.01
2023-03-23T18:13:42.055Z,15.98
2023-03-23T18:13:55.109Z,15.98
2023-03-23T18:14:02.306Z,15.98
2023-03-23T18:14:12.497Z,15.96
2023-03-23T18:14:22.569Z,15.96
2023-03-23T18:14:32.652Z,15.96
2023-03-23T18:14:42.834Z,15.98
2023-03-23T18:15:03.572Z,15.98
2023-03-23T18:15:13.228Z,15.98
2023-03-23T18:15:28.877Z,16.01
2023-03-23T18:15:34.990Z,15.98
2023-03-23T18:15:45.976Z,16.01
2023-03-23T18:15:54.069Z,16.03
2023-03-23T18:16:04.332Z,16.03
2023-03-23T18:16:14.273Z,16.06
2023-03-23T18:16:24.357Z,16.04
2023-03-23T18:16:44.806Z,16.04
2023-03-23T18:16:54.865Z,16.04
2023-03-23T18:17:05.179Z,16.04
2023-03-23T18:17:15.290Z,16.03
2023-03-23T18:17:25.339Z,16.04
2023-03-23T18:17:35.530Z,16.04
2023-03-23T18:17:48.879Z,16.03
2023-03-23T18:17:55.535Z,16.01
2023-03-23T18:18:05.727Z,16.01
2023-03-23T18:18:15.903Z,16.03
2023-03-23T18:18:26.013Z,16.03
2023-03-23T18:18:36.078Z,16.01
2023-03-23T18:18:56.277Z,16.03
2023-03-23T18:19:06.521Z,16.03
2023-03-23T18:19:17.283Z,16.03
2023-03-23T18:19:26.808Z,16.01
2023-03-23T18:19:36.949Z,16.01
2023-03-23T18:19:46.979Z,16.01
2023-03-23T18:19:57.205Z,15.99
2023-03-23T18:20:07.303Z,15.98
2023-03-23T18:20:17.409Z,15.98
2023-03-23T18:20:27.652Z,15.96
2023-03-23T18:20:37.681Z,15.93
2023-03-23T18:20:47.759Z,15.93
2023-03-23T18:20:57.817Z,15.93
2023-03-23T18:21:08.017Z,15.93
2023-03-23T18:21:18.071Z,15.92
2023-03-23T18:21:28.426Z,15.93
2023-03-23T18:21:38.474Z,15.92
2023-03-23T18:21:48.420Z,15.92
2023-03-23T18:21:58.539Z,15.91
2023-03-23T18:22:08.762Z,15.88
2023-03-23T18:22:18.839Z,15.88
2023-03-23T18:22:29.005Z,15.88
2023-03-23T18:22:39.072Z,15.85
2023-03-23T18:22:49.282Z,15.84
2023-03-23T18:22:59.286Z,15.84
2023-03-23T18:23:09.486Z,15.81
2023-03-23T18:23:19.666Z,15.81
2023-03-23T18:23:29.724Z,15.84
2023-03-23T18:23:49.294Z,15.84
2023-03-23T18:23:59.785Z,15.84
2023-03-23T18:24:06.139Z,15.85
2023-03-23T18:24:16.262Z,15.91
2023-03-23T18:24:26.485Z,15.91
2023-03-23T18:24:36.599Z,15.92
2023-03-23T18:24:46.685Z,15.93
2023-03-23T18:25:06.836Z,15.92
2023-03-23T18:25:17.135Z,15.93
2023-03-23T18:25:27.174Z,15.93
2023-03-23T18:25:37.158Z,15.95
2023-03-23T18:25:47.519Z,15.95
2023-03-23T18:25:57.846Z,15.95
2023-03-23T18:26:07.860Z,15.95
2023-03-23T18:26:17.775Z,15.95
2023-03-23T18:26:28.249Z,15.93
2023-03-23T18:26:39.157Z,15.93
2023-03-23T18:26:48.391Z,15.93
2023-03-23T18:26:58.388Z,15.93
2023-03-23T18:27:08.776Z,15.92
2023-03-23T18:27:18.809Z,15.92
